Etusivu
METAR-TAF:

METAR-TAF

Lentoasemat :

Swift Current, Saskatchewan, Kanada

Leveyspiiri: 50-17N, Pituuspiiri: 107-41W, korkeus merenpinnasta: 818 m

Tämänhetkinen sää

Tämä raportti tehtiin 23 minuuttia sitten, kello 22.00 UTC
Tuuli 6 kn etelästä
Lämpötila 4°C
Kosteus 70%
Ilmanpaine 1011 hPa
Näkyvyys: 14.5 km
selkeää

METAR: CYYN 202200Z AUTO 18006KT 9SM CLR 04/M01 A2984 RMK SLP134

Aika: 16:23 (22:23 UTC)

Sääennuste

Tämä raportti tehtiin 4 tuntia ja 45 minuuttia sitten, kello 17.38 UTC
Ennuste voimassa 20. päivästä klo 18 UTC - 21. päivään klo 06 UTC
Tuuli 10 kn lännestä/lounaasta
Näkyvyys: 10 km
selkeää
Tulossa
20. päivästä klo 19 UTC - 20. päivään klo 21 UTC
Tuuli 6 kn kaakosta

TAF: CYYN 201738Z 2018/2106 24010KT P6SM SKC BECMG 2019/2021 13006KT RMK FCST BASED ON AUTO OBS. NXT FCST BY 210000Z

Säähavainnot ja -ennusteet yli 4000 lentoasemalta (METAR- ja TAF-raportit).

Käytössä olevat sääasemat on merkitty karttaan keltaisilla ja punaisilla pisteillä.

Aseta hiiri pisteen päälle nähdäksesi sääaseman nimen.

Klikkaa sitten nähdäksesi säähavainnot ja -ennusteet.

Kartan vaihtaminen: klikkaa mustalla rastilla varustettuja vihreitä pisteitä, niin voit zoomata sisään; viivalla varustettua vihreää pistettä, niin voit zoomata ulos tai vihreitä nuolia, niin pääset viereisille kartoille.


METAR-TAF: